EGVN

RAF Brize Norton Airport

Brize Norton, United Kingdom
METAR EGVN 180650Z 15003KT 1200 BR SCT002 BKN005 04/04 Q1021 AMB NOSIG
Observed Flight Rules
Feb-18 @ 06:50 UTC (26 minutes ago) Instrument Flight Rules
Wind Visibility Clouds Conditions
150° at 3 knots 1,207 meters
  • Scattered at 200' AGL
  • Broken at 500' AGL
  • Mist
Temperatures Readings
Current 4°C / 39°F
Dewpoint 4°C / 39°F
Humidity 100%
Altimeter 30.15" Hg
Pressure 1021 hPa
Elevation 88
METAR EGVN 180650Z 15003KT 1200 BR SCT002 BKN005 04/04 Q1021 AMB NOSIG
Observed Flight Rules
Feb-18 @ 06:50 UTC
(26 minutes ago)
LIFR
Wind Visibility
150° at 3 knots 1,207 meters
Clouds
  • Scattered at 200' AGL
  • Broken at 500' AGL
Conditions
  • Mist
Temperature Dewpoint
4°C / 39°F 4°C / 39°F
Humidity Altimeter Pressure
100% 30.15" Hg 1021 hPa